(°F)
46°
47°
47°
48°
48°
49°
49°
(°F)
41°
42°
43°
44°
45°
46°
47°
E
E
E
ENE
NE
NNE
NNW
(mph)
5-8
4-7
3-6
2-4
2-3
2-2
1-2
(in)
0
0
0
0
0
0
0
(%)
30
36
43
49
61
65
69

Sun elevation

/ -67.3°
sun-icon
UV 2
07:05
16:39
Waxing crescent moon (17°)
08:47
17:56

METAR for Wilmington Manor (KILG)

Time Conditions Temperature/
Dewpoint
Wind Visibility Weather Clouds Pressure Change Raw
VFR 46.04°F / 37.04°F 70º 6kt >10km - Overcast 3800ft 1023 - KILG 060251Z 07006KT 10SM OVC038 08/03 A3022 RMK AO2 SLP232 T00780028 58021 $
VFR 46.04°F / 35.96°F 80º 5kt >10km - Overcast 4000ft 1024 - KILG 060151Z 08005KT 10SM OVC040 08/02 A3025 RMK AO2 SLP242 T00780022 $
VFR 46.04°F / 35.96°F 80º 5kt >10km - Few Clouds 5500ft
Broken Clouds 7000ft
1024 - KILG 060051Z 08005KT 10SM FEW055 BKN070 08/02 A3027 RMK AO2 SLP249 T00780022 $
VFR 46.04°F / 35.96°F 100º 6kt >10km - Clear 1025 - KILG 052351Z 10006KT 10SM CLR 08/02 A3028 RMK AO2 SLP255 T00780022 10106 20078 56011 $
VFR 48.02°F / 35.06°F 130º 9kt >10km - Overcast 8500ft 1025 - KILG 052251Z 13009KT 10SM OVC085 09/02 A3029 RMK AO2 SLP257 T00890017 $
VFR 46.94°F / 37.04°F 130º 4kt >10km - Overcast 9000ft 1025 - KILG 052151Z 13004KT 10SM OVC090 08/03 A3029 RMK AO2 SLP259 T00830028 $
VFR 48.92°F / 33.98°F 170º 7kt >10km - Overcast 9000ft 1026 - KILG 052051Z 17007KT 10SM OVC090 09/01 A3031 RMK AO2 SLP265 T00940011 56015 $
VFR 48.92°F / 26.96°F 180º 7kt >10km - Overcast 8500ft 1026 - KILG 051951Z 18007KT 10SM OVC085 09/M03 A3032 RMK AO2 SLP267 T00941028 $
VFR 50°F / 24.98°F 150º 8kt >10km - Few Clouds 8500ft 1027 - KILG 051851Z 15008KT 10SM FEW085 10/M04 A3034 RMK AO2 SLP273 T01001039 $
VFR 50°F / 24.98°F 160º 7kt >10km - Clear 1028 - KILG 051751Z 16007KT 10SM CLR 10/M04 A3036 RMK AO2 SLP280 T01001039 10100 21017 58016 $
VFR 48.92°F / 24.98°F 100º 5kt >10km - Clear 1028 - KILG 051651Z 10005KT 10SM CLR 09/M04 A3039 RMK AO2 SLP289 T00941039 $
VFR 48.02°F / 24.08°F 90º 7kt >10km - Clear 1029 - KILG 051551Z 09007KT 10SM CLR 09/M04 A3041 RMK AO2 SLP296 T00891044 $
VFR 46.04°F / 26.06°F 70º 7kt >10km - Clear 1029 - KILG 051451Z 07007KT 10SM CLR 08/M03 A3041 RMK AO2 SLP296 T00781033 $
VFR 39.02°F / 28.94°F 10º 3kt >10km - Clear 1029 - KILG 051351Z 01003KT 10SM CLR 04/M02 A3039 RMK AO2 SLP293 T00391017 $
VFR 30.02°F / 26.06°F 320º 3kt >10km - Clear 1028 - KILG 051251Z 32003KT 9SM CLR M01/M03 A3038 RMK AO2 SLP288 T10111033 $
VFR 30.02°F / 24.98°F variable 0kt >10km - Clear 1028 - KILG 051151Z 00000KT 10SM CLR M01/M04 A3036 RMK AO2 SLP282 T10111039 10017 21022 51018
VFR 30.02°F / 26.96°F 320º 3kt >10km - Clear 1027 - KILG 051051Z AUTO 32003KT 10SM CLR M01/M03 A3034 RMK AO2 SLP276 T10111028
VFR 30.92°F / 26.96°F variable 0kt >10km - Clear 1027 - KILG 050951Z AUTO 00000KT 10SM CLR M01/M03 A3033 RMK AO2 SLP271 T10061028
VFR 30.92°F / 26.96°F 340º 4kt >10km - Clear 1026 - KILG 050851Z AUTO 34004KT 9SM CLR M01/M03 A3031 RMK AO2 SLP264 T10061028 51020
VFR 32°F / 26.96°F variable 0kt >10km - Clear 1025 - KILG 050751Z AUTO 00000KT 10SM CLR 00/M03 A3030 RMK AO2 SLP259 T00001028
VFR 33.98°F / 28.04°F 290º 4kt >10km - Clear 1025 - KILG 050651Z AUTO 29004KT 10SM CLR 01/M02 A3027 RMK AO2 SLP250 T00111022
VFR 32°F / 28.04°F 320º 6kt >10km - Clear 1024 - KILG 050551Z AUTO 32006KT 10SM CLR 00/M02 A3025 RMK AO2 SLP244 T00001022 10072 20000 51017
VFR 32°F / 28.04°F 330º 4kt >10km - Clear 1024 - KILG 050451Z AUTO 33004KT 7SM CLR 00/M02 A3024 RMK AO2 SLP241 T00001022 401000000
VFR 37.04°F / 30.92°F 260º 3kt >10km - Clear 1023 - KILG 050351Z AUTO 26003KT 10SM CLR 03/M01 A3021 RMK AO2 SLP230 T00281006

VFR

46.04°F / 37.04°F

[More]
Wind 70º 6kt
Visibility >10km
Weather -
Clouds Overcast 3800ft
Pressure 1023
Change -
Raw KILG 060251Z 07006KT 10SM OVC038 08/03 A3022 RMK AO2 SLP232 T00780028 58021 $

VFR

46.04°F / 35.96°F

[More]
Wind 80º 5kt
Visibility >10km
Weather -
Clouds Overcast 4000ft
Pressure 1024
Change -
Raw KILG 060151Z 08005KT 10SM OVC040 08/02 A3025 RMK AO2 SLP242 T00780022 $

VFR

46.04°F / 35.96°F

[More]
Wind 80º 5kt
Visibility >10km
Weather -
Clouds Few Clouds 5500ft
Broken Clouds 7000ft
Pressure 1024
Change -
Raw KILG 060051Z 08005KT 10SM FEW055 BKN070 08/02 A3027 RMK AO2 SLP249 T00780022 $

VFR

46.04°F / 35.96°F

[More]
Wind 100º 6kt
Visibility >10km
Weather -
Clouds Clear
Pressure 1025
Change -
Raw KILG 052351Z 10006KT 10SM CLR 08/02 A3028 RMK AO2 SLP255 T00780022 10106 20078 56011 $

VFR

48.02°F / 35.06°F

[More]
Wind 130º 9kt
Visibility >10km
Weather -
Clouds Overcast 8500ft
Pressure 1025
Change -
Raw KILG 052251Z 13009KT 10SM OVC085 09/02 A3029 RMK AO2 SLP257 T00890017 $

VFR

46.94°F / 37.04°F

[More]
Wind 130º 4kt
Visibility >10km
Weather -
Clouds Overcast 9000ft
Pressure 1025
Change -
Raw KILG 052151Z 13004KT 10SM OVC090 08/03 A3029 RMK AO2 SLP259 T00830028 $

VFR

48.92°F / 33.98°F

[More]
Wind 170º 7kt
Visibility >10km
Weather -
Clouds Overcast 9000ft
Pressure 1026
Change -
Raw KILG 052051Z 17007KT 10SM OVC090 09/01 A3031 RMK AO2 SLP265 T00940011 56015 $

VFR

48.92°F / 26.96°F

[More]
Wind 180º 7kt
Visibility >10km
Weather -
Clouds Overcast 8500ft
Pressure 1026
Change -
Raw KILG 051951Z 18007KT 10SM OVC085 09/M03 A3032 RMK AO2 SLP267 T00941028 $

VFR

50°F / 24.98°F

[More]
Wind 150º 8kt
Visibility >10km
Weather -
Clouds Few Clouds 8500ft
Pressure 1027
Change -
Raw KILG 051851Z 15008KT 10SM FEW085 10/M04 A3034 RMK AO2 SLP273 T01001039 $

VFR

50°F / 24.98°F

[More]
Wind 160º 7kt
Visibility >10km
Weather -
Clouds Clear
Pressure 1028
Change -
Raw KILG 051751Z 16007KT 10SM CLR 10/M04 A3036 RMK AO2 SLP280 T01001039 10100 21017 58016 $

VFR

48.92°F / 24.98°F

[More]
Wind 100º 5kt
Visibility >10km
Weather -
Clouds Clear
Pressure 1028
Change -
Raw KILG 051651Z 10005KT 10SM CLR 09/M04 A3039 RMK AO2 SLP289 T00941039 $

VFR

48.02°F / 24.08°F

[More]
Wind 90º 7kt
Visibility >10km
Weather -
Clouds Clear
Pressure 1029
Change -
Raw KILG 051551Z 09007KT 10SM CLR 09/M04 A3041 RMK AO2 SLP296 T00891044 $

VFR

46.04°F / 26.06°F

[More]
Wind 70º 7kt
Visibility >10km
Weather -
Clouds Clear
Pressure 1029
Change -
Raw KILG 051451Z 07007KT 10SM CLR 08/M03 A3041 RMK AO2 SLP296 T00781033 $

VFR

39.02°F / 28.94°F

[More]
Wind 10º 3kt
Visibility >10km
Weather -
Clouds Clear
Pressure 1029
Change -
Raw KILG 051351Z 01003KT 10SM CLR 04/M02 A3039 RMK AO2 SLP293 T00391017 $

VFR

30.02°F / 26.06°F

[More]
Wind 320º 3kt
Visibility >10km
Weather -
Clouds Clear
Pressure 1028
Change -
Raw KILG 051251Z 32003KT 9SM CLR M01/M03 A3038 RMK AO2 SLP288 T10111033 $

VFR

30.02°F / 24.98°F

[More]
Wind variable 0kt
Visibility >10km
Weather -
Clouds Clear
Pressure 1028
Change -
Raw KILG 051151Z 00000KT 10SM CLR M01/M04 A3036 RMK AO2 SLP282 T10111039 10017 21022 51018

VFR

30.02°F / 26.96°F

[More]
Wind 320º 3kt
Visibility >10km
Weather -
Clouds Clear
Pressure 1027
Change -
Raw KILG 051051Z AUTO 32003KT 10SM CLR M01/M03 A3034 RMK AO2 SLP276 T10111028

VFR

30.92°F / 26.96°F

[More]
Wind variable 0kt
Visibility >10km
Weather -
Clouds Clear
Pressure 1027
Change -
Raw KILG 050951Z AUTO 00000KT 10SM CLR M01/M03 A3033 RMK AO2 SLP271 T10061028

VFR

30.92°F / 26.96°F

[More]
Wind 340º 4kt
Visibility >10km
Weather -
Clouds Clear
Pressure 1026
Change -
Raw KILG 050851Z AUTO 34004KT 9SM CLR M01/M03 A3031 RMK AO2 SLP264 T10061028 51020

VFR

32°F / 26.96°F

[More]
Wind variable 0kt
Visibility >10km
Weather -
Clouds Clear
Pressure 1025
Change -
Raw KILG 050751Z AUTO 00000KT 10SM CLR 00/M03 A3030 RMK AO2 SLP259 T00001028

VFR

33.98°F / 28.04°F

[More]
Wind 290º 4kt
Visibility >10km
Weather -
Clouds Clear
Pressure 1025
Change -
Raw KILG 050651Z AUTO 29004KT 10SM CLR 01/M02 A3027 RMK AO2 SLP250 T00111022

VFR

32°F / 28.04°F

[More]
Wind 320º 6kt
Visibility >10km
Weather -
Clouds Clear
Pressure 1024
Change -
Raw KILG 050551Z AUTO 32006KT 10SM CLR 00/M02 A3025 RMK AO2 SLP244 T00001022 10072 20000 51017

VFR

32°F / 28.04°F

[More]
Wind 330º 4kt
Visibility >10km
Weather -
Clouds Clear
Pressure 1024
Change -
Raw KILG 050451Z AUTO 33004KT 7SM CLR 00/M02 A3024 RMK AO2 SLP241 T00001022 401000000

VFR

37.04°F / 30.92°F

[More]
Wind 260º 3kt
Visibility >10km
Weather -
Clouds Clear
Pressure 1023
Change -
Raw KILG 050351Z AUTO 26003KT 10SM CLR 03/M01 A3021 RMK AO2 SLP230 T00281006

TAF for Wilmington Manor (KILG)

From till


From till Wind 130º 5kt. Visibility 10km or more. Overcast 8000ft.
From till Wind variable 4kt. Visibility 10km or more. in the Vicinity Showers . Overcast 3000ft.
Temporarly from till Visibility 8000m. Light Showers Rain . Overcast 800ft.
From till Wind 150º 7kt. Visibility 10km or more. Overcast 800ft.
From till Wind 200º 13kt. Gust 26kt. Visibility 10km or more. Overcast 2500ft.
From till Wind 240º 14kt. Gust 26kt. Visibility 8000m. Light Showers Rain . Overcast 2000ft.

Raw: KILG 052340Z 0600/0624 13005KT P6SM OVC080 FM060400 VRB04KT P6SM VCSH OVC030 TEMPO 0605/0609 5SM -SHRA OVC008 FM061000 15007KT P6SM OVC008 FM061500 20013G26KT P6SM OVC025 FM062200 24014G26KT 5SM -SHRA OVC020

Radar and precipitation nowcast for Wilmington Manor

Drizzle
Light
Moderate
Heavy
Very Heavy
Hail

The location marker is placed on Wilmington Manor. This animation shows the precipitation radar for the last hour, as well as a 1h forecast. Drizzle or light snow fall might be invisible for the radar. Precipitation intensity is colour coded, ranging from light blue to orange.

Current satellite images for Wilmington Manor, United States of America

The location marker is placed on Wilmington Manor. [More]

The real-time satellite image combines visible light during daytime with infrared radiation during nighttime. At night, the image is not dark as infrared radiation can detect temperature differences. Unfortunately, low clouds and fog are difficult to distinguish from ground temperatures and thus can be almost invisible during the night. Meteosat satellite images for Europe are updated in real-time every 5 minutes. GOES-16/GOES-17 (North & South America) and Himawari (Asia) images update every 10 minutes.